Time;durP1;ratioP1;P1;durP2;ratioP2;P2;SDS_P1;SDS_P2;PMS_P1;PMS_P2;Temp;Humidity;BMP_temperature;BMP_pressure;BME280_temperature;BME280_humidity;BME280_pressure;Samples;Min_cycle;Max_cycle;Signal;HPM_P1;HPM_P2
2023/07/11 00:00:58;;;;;;;3.60;3.20;;;;;;;16.58;64.77;99227.38;107032;1257;73057;-39
2023/07/11 00:03:25;;;;;;;4.30;3.20;;;;;;;16.60;64.61;99231.59;107036;1263;67583;-39
2023/07/11 00:06:05;;;;;;;3.50;3.00;;;;;;;16.59;64.61;99230.04;107046;1258;72665;-39
2023/07/11 00:08:33;;;;;;;6.40;3.20;;;;;;;16.55;64.66;99226.05;106982;1257;59798;-39
2023/07/11 00:11:01;;;;;;;3.50;2.80;;;;;;;16.51;64.85;99227.79;106950;1260;59248;-39
2023/07/11 00:13:28;;;;;;;3.50;3.10;;;;;;;16.47;64.90;99229.23;107025;1257;73063;-39
2023/07/11 00:16:01;;;;;;;3.70;3.30;;;;;;;16.40;64.90;99231.80;107103;1257;67712;-40
2023/07/11 00:18:29;;;;;;;5.40;3.40;;;;;;;16.34;65.08;99225.64;107089;1260;71462;-39
2023/07/11 00:20:57;;;;;;;3.50;3.00;;;;;;;16.32;65.16;99223.31;107054;1261;61775;-39
2023/07/11 00:23:24;;;;;;;5.80;3.30;;;;;;;16.35;65.18;99222.41;107054;1263;59509;-39
2023/07/11 00:25:52;;;;;;;4.60;3.20;;;;;;;16.37;65.06;99225.39;107060;1261;71836;-39
2023/07/11 00:28:20;;;;;;;4.60;3.50;;;;;;;16.34;65.02;99226.90;107057;1261;65866;-39
2023/07/11 00:30:48;;;;;;;3.80;3.10;;;;;;;16.30;65.17;99231.54;107070;1263;72660;-39
2023/07/11 00:33:16;;;;;;;4.40;3.30;;;;;;;16.26;65.39;99228.98;107119;1257;59605;-40
2023/07/11 00:35:45;;;;;;;6.00;3.50;;;;;;;16.22;65.49;99233.77;107079;1258;59938;-39
2023/07/11 00:38:15;;;;;;;3.60;3.00;;;;;;;16.18;65.57;99225.59;107130;1260;73074;-40
2023/07/11 00:40:43;;;;;;;4.70;3.10;;;;;;;16.15;65.64;99222.88;107053;1257;67635;-40
2023/07/11 00:43:16;;;;;;;3.90;3.10;;;;;;;16.13;65.56;99221.70;107074;1261;71439;-39
2023/07/11 00:45:49;;;;;;;3.20;2.90;;;;;;;16.17;65.60;99219.80;107050;1264;60135;-39
2023/07/11 00:48:19;;;;;;;5.40;3.10;;;;;;;16.17;65.68;99219.42;107073;1258;59408;-39
2023/07/11 00:50:47;;;;;;;5.80;3.20;;;;;;;16.15;65.67;99219.98;107079;1257;72409;-39
2023/07/11 00:53:15;;;;;;;4.00;3.30;;;;;;;16.13;65.74;99214.28;106909;1257;67529;-39
2023/07/11 00:55:42;;;;;;;4.30;3.20;;;;;;;16.10;65.74;99212.91;106964;1264;73260;-39
2023/07/11 00:58:11;;;;;;;3.40;3.10;;;;;;;16.07;65.81;99211.73;106969;1260;59758;-39
2023/07/11 01:00:38;;;;;;;4.50;3.40;;;;;;;16.04;65.80;99205.80;106942;1257;59598;-40
2023/07/11 01:03:06;;;;;;;4.90;3.30;;;;;;;15.97;65.90;99207.43;107106;1260;73083;-39
2023/07/11 01:05:38;;;;;;;5.10;3.30;;;;;;;15.92;66.03;99206.20;107052;1257;67592;-39
2023/07/11 01:08:09;;;;;;;4.20;2.90;;;;;;;15.91;66.16;99207.61;107118;1260;72728;-39
2023/07/11 01:10:36;;;;;;;4.00;3.20;;;;;;;15.88;66.27;99204.25;107131;1260;59622;-39
2023/07/11 01:13:04;;;;;;;5.30;3.10;;;;;;;15.88;66.51;99201.92;107073;1259;59491;-40
2023/07/11 01:15:31;;;;;;;3.50;3.10;;;;;;;15.87;66.60;99201.92;107062;1259;71914;-39
2023/07/11 01:17:59;;;;;;;6.10;3.70;;;;;;;15.84;66.87;99201.79;107045;1261;66488;-39
2023/07/11 01:20:27;;;;;;;5.70;3.40;;;;;;;15.82;67.26;99202.20;106945;1260;72719;-39
2023/07/11 01:22:55;;;;;;;3.90;2.90;;;;;;;15.79;67.24;99201.95;107046;1261;62134;-39
2023/07/11 01:25:23;;;;;;;6.10;3.10;;;;;;;15.82;67.04;99205.61;107041;1259;60442;-39
2023/07/11 01:27:51;;;;;;;4.00;3.00;;;;;;;15.81;66.94;99195.25;107133;1259;73860;-39
2023/07/11 01:30:21;;;;;;;3.80;3.30;;;;;;;15.77;67.07;99198.70;107044;1261;67730;-40
2023/07/11 01:32:48;;;;;;;4.30;3.00;;;;;;;15.72;67.19;99196.31;106981;1259;72788;-40
2023/07/11 01:35:17;;;;;;;5.80;3.60;;;;;;;15.67;67.49;99197.58;107091;1260;60435;-40
2023/07/11 01:37:45;;;;;;;4.30;3.20;;;;;;;15.62;67.57;99197.98;107029;1259;60362;-40
2023/07/11 01:40:13;;;;;;;3.50;3.10;;;;;;;15.62;67.49;99197.67;107173;1259;73859;-39
2023/07/11 01:42:40;;;;;;;4.80;3.40;;;;;;;15.64;67.53;99190.95;107023;1259;67777;-39
2023/07/11 01:45:09;;;;;;;4.40;3.20;;;;;;;15.66;67.67;99190.00;106959;1260;72706;-39
2023/07/11 01:47:37;;;;;;;3.40;3.10;;;;;;;15.66;67.92;99193.05;107101;1262;60544;-39
2023/07/11 01:50:06;;;;;;;4.20;3.30;;;;;;;15.66;67.97;99191.73;107103;1260;60452;-39
2023/07/11 01:52:35;;;;;;;5.00;3.70;;;;;;;15.66;68.02;99194.53;107018;1259;71579;-39
2023/07/11 01:55:05;;;;;;;5.40;3.30;;;;;;;15.63;68.02;99192.90;107012;1263;66772;-40
2023/07/11 01:57:32;;;;;;;3.60;3.10;;;;;;;15.60;67.89;99198.22;107054;1260;71432;-39
2023/07/11 02:00:00;;;;;;;5.40;3.60;;;;;;;15.60;68.00;99201.59;107077;1258;60415;-40
2023/07/11 02:02:28;;;;;;;5.10;3.40;;;;;;;15.59;68.07;99201.42;107068;1259;60452;-39
2023/07/11 02:04:55;;;;;;;4.30;3.40;;;;;;;15.57;68.04;99201.20;107026;1259;73956;-39
2023/07/11 02:07:23;;;;;;;3.50;3.20;;;;;;;15.56;68.32;99204.02;107026;1261;67617;-39
2023/07/11 02:09:50;;;;;;;4.00;3.50;;;;;;;15.53;68.41;99205.27;106942;1262;72708;-39
2023/07/11 02:12:18;;;;;;;5.90;3.50;;;;;;;15.56;68.42;99212.46;106999;1260;60729;-39
2023/07/11 02:14:47;;;;;;;3.90;3.40;;;;;;;15.56;68.34;99212.13;107032;1259;60161;-39
2023/07/11 02:17:16;;;;;;;7.60;3.60;;;;;;;15.57;68.44;99215.02;107037;1259;74320;-39
2023/07/11 02:19:47;;;;;;;4.10;3.70;;;;;;;15.59;68.48;99215.64;106907;1259;66326;-40
2023/07/11 02:22:15;;;;;;;3.90;3.40;;;;;;;15.59;68.48;99216.89;107035;1258;72718;-39
2023/07/11 02:24:42;;;;;;;4.70;3.80;;;;;;;15.57;68.46;99215.58;106992;1263;60414;-39
2023/07/11 02:27:10;;;;;;;4.30;3.50;;;;;;;15.53;68.58;99216.52;107012;1259;60422;-40
2023/07/11 02:29:37;;;;;;;4.00;3.60;;;;;;;15.50;68.79;99210.20;107029;1259;73169;-39
2023/07/11 02:32:06;;;;;;;4.80;3.70;;;;;;;15.53;68.76;99207.53;107162;1259;67578;-39
2023/07/11 02:34:33;;;;;;;5.50;4.10;;;;;;;15.55;68.68;99207.46;107043;1259;70350;-39
2023/07/11 02:37:01;;;;;;;4.10;3.70;;;;;;;15.55;68.71;99204.48;107027;1259;60470;-39
2023/07/11 02:39:29;;;;;;;5.30;3.80;;;;;;;15.54;68.92;99207.61;107031;1261;60320;-39
2023/07/11 02:41:56;;;;;;;4.20;3.70;;;;;;;15.54;69.05;99206.91;107149;1262;73873;-39
2023/07/11 02:44:24;;;;;;;6.60;4.10;;;;;;;15.53;69.14;99205.83;107045;1259;66321;-39
2023/07/11 02:46:51;;;;;;;4.50;3.80;;;;;;;15.54;69.24;99201.61;107045;1259;71417;-39
2023/07/11 02:49:20;;;;;;;4.30;3.50;;;;;;;15.59;69.28;99200.73;107115;1260;61684;-39
2023/07/11 02:51:47;;;;;;;4.30;3.90;;;;;;;15.64;69.26;99200.32;107068;1260;60301;-39
2023/07/11 02:54:15;;;;;;;5.50;4.30;;;;;;;15.68;69.27;99202.95;107157;1259;72576;-39
2023/07/11 02:56:43;;;;;;;3.90;3.60;;;;;;;15.69;69.28;99203.19;107012;1259;67984;-39
2023/07/11 02:59:10;;;;;;;5.40;3.90;;;;;;;15.72;69.34;99205.05;107011;1261;71472;-39
2023/07/11 03:01:38;;;;;;;4.80;4.20;;;;;;;15.74;69.43;99205.98;107045;1259;60338;-39
2023/07/11 03:04:05;;;;;;;5.20;4.20;;;;;;;15.74;69.58;99202.77;107055;1259;60480;-39
2023/07/11 03:06:33;;;;;;;4.50;3.90;;;;;;;15.76;69.39;99197.70;107031;1258;73842;-39
2023/07/11 03:09:00;;;;;;;4.20;3.60;;;;;;;15.79;69.38;99197.05;107060;1259;66619;-39
2023/07/11 03:11:28;;;;;;;6.40;4.60;;;;;;;15.80;69.54;99200.70;107007;1259;71812;-39
2023/07/11 03:13:56;;;;;;;5.00;4.30;;;;;;;15.81;69.77;99190.09;107060;1259;60326;-39
2023/07/11 03:16:24;;;;;;;5.80;4.70;;;;;;;15.82;69.85;99182.89;107038;1261;60320;-39
2023/07/11 03:18:51;;;;;;;5.20;3.90;;;;;;;15.84;70.11;99182.42;107028;1260;73891;-39
2023/07/11 03:21:19;;;;;;;4.90;3.60;;;;;;;15.89;70.11;99184.97;107038;1259;66641;-39
2023/07/11 03:23:47;;;;;;;4.40;3.90;;;;;;;15.94;69.94;99189.32;107066;1261;72699;-39
2023/07/11 03:26:15;;;;;;;7.30;4.10;;;;;;;15.94;70.12;99188.68;107016;1260;60439;-39
2023/07/11 03:28:42;;;;;;;5.40;3.90;;;;;;;15.94;70.17;99187.13;107088;1259;60321;-39
2023/07/11 03:31:09;;;;;;;5.80;4.40;;;;;;;15.95;70.42;99193.54;107056;1259;73834;-39
2023/07/11 03:33:37;;;;;;;5.10;4.20;;;;;;;15.97;70.44;99199.92;107023;1259;67583;-40
2023/07/11 03:36:05;;;;;;;6.60;4.30;;;;;;;16.00;70.35;99196.39;107052;1259;72679;-40
2023/07/11 03:38:33;;;;;;;6.30;4.90;;;;;;;16.04;70.65;99201.38;107031;1259;60467;-40
2023/07/11 03:41:01;;;;;;;4.50;4.10;;;;;;;16.07;70.72;99204.87;107032;1263;60264;-40
2023/07/11 03:43:29;;;;;;;7.70;4.50;;;;;;;16.09;70.76;99206.18;107026;1259;73847;-40
2023/07/11 03:45:56;;;;;;;6.30;4.40;;;;;;;16.10;70.95;99208.84;107013;1259;67742;-40
2023/07/11 03:48:24;;;;;;;5.30;4.80;;;;;;;16.10;71.04;99210.10;106982;1260;72674;-40
2023/07/11 03:50:52;;;;;;;6.00;4.50;;;;;;;16.11;71.19;99210.31;107010;1260;61698;-40
2023/07/11 03:53:19;;;;;;;5.30;4.80;;;;;;;16.17;71.42;99208.80;107026;1259;59677;-40
2023/07/11 03:55:47;;;;;;;5.00;4.50;;;;;;;16.22;71.80;99208.91;107017;1259;72617;-40
2023/07/11 03:58:14;;;;;;;5.70;4.70;;;;;;;16.27;71.96;99203.10;107026;1259;66798;-40
2023/07/11 04:00:42;;;;;;;5.80;5.20;;;;;;;16.31;71.87;99207.69;107022;1259;72673;-40
2023/07/11 04:03:10;;;;;;;5.30;4.50;;;;;;;16.28;71.73;99208.09;107000;1259;60443;-40
2023/07/11 04:05:40;;;;;;;6.00;4.60;;;;;;;16.28;72.09;99209.05;106977;1259;60436;-41
2023/07/11 04:08:08;;;;;;;5.20;4.70;;;;;;;16.35;72.27;99205.39;106902;1261;74159;-40
2023/07/11 04:10:36;;;;;;;5.40;4.80;;;;;;;16.41;72.24;99207.63;107051;1258;67557;-40
2023/07/11 04:13:03;;;;;;;8.10;4.80;;;;;;;16.44;72.23;99215.27;107053;1259;71380;-40
2023/07/11 04:15:31;;;;;;;6.70;5.20;;;;;;;16.44;72.13;99213.78;107054;1257;61674;-41
2023/07/11 04:17:58;;;;;;;5.20;4.70;;;;;;;16.49;72.38;99213.27;107077;1261;60401;-40
2023/07/11 04:20:26;;;;;;;5.30;4.80;;;;;;;16.56;72.36;99211.27;107066;1258;73861;-40
2023/07/11 04:22:54;;;;;;;6.20;5.10;;;;;;;16.61;72.44;99212.19;107054;1257;67608;-41
2023/07/11 04:25:21;;;;;;;6.10;4.60;;;;;;;16.65;72.27;99208.64;107046;1262;71517;-40
2023/07/11 04:27:49;;;;;;;5.80;5.10;;;;;;;16.72;72.32;99208.12;107129;1257;60354;-41
2023/07/11 04:30:16;;;;;;;5.90;4.60;;;;;;;16.74;72.17;99210.83;107067;1263;60357;-41
2023/07/11 04:32:44;;;;;;;6.60;4.40;;;;;;;16.82;72.04;99213.03;107086;1258;72977;-41
2023/07/11 04:35:13;;;;;;;6.50;4.80;;;;;;;16.94;71.73;99214.71;107082;1257;67617;-41
2023/07/11 04:37:41;;;;;;;6.50;4.50;;;;;;;17.03;71.46;99207.60;107102;1259;71736;-41
2023/07/11 04:40:10;;;;;;;6.10;5.20;;;;;;;17.10;71.29;99202.84;107043;1257;60520;-40
2023/07/11 04:42:38;;;;;;;5.90;5.30;;;;;;;17.17;71.11;99203.86;107055;1263;60413;-40
2023/07/11 04:45:06;;;;;;;6.30;4.60;;;;;;;17.22;70.72;99207.40;107017;1263;73874;-41
2023/07/11 04:47:34;;;;;;;7.00;4.40;;;;;;;17.28;70.62;99207.57;107183;1258;67865;-41
2023/07/11 04:50:03;;;;;;;4.90;4.40;;;;;;;17.40;69.98;99200.17;107079;1259;72650;-41
2023/07/11 04:52:32;;;;;;;5.50;4.90;;;;;;;17.50;69.74;99202.71;107022;1257;60547;-41
2023/07/11 04:54:59;;;;;;;5.00;4.50;;;;;;;17.56;69.45;99199.27;107085;1258;60451;-40
2023/07/11 04:57:27;;;;;;;5.30;4.60;;;;;;;17.61;69.38;99199.55;107026;1257;73851;-41
2023/07/11 04:59:54;;;;;;;5.10;4.40;;;;;;;17.65;68.75;99202.09;107045;1258;67604;-41
2023/07/11 05:02:22;;;;;;;4.70;4.00;;;;;;;17.73;68.53;99198.16;107033;1257;71492;-40
2023/07/11 05:04:50;;;;;;;5.90;4.10;;;;;;;17.85;68.24;99196.20;107051;1258;60327;-41
2023/07/11 05:07:17;;;;;;;5.40;4.30;;;;;;;17.95;67.60;99198.17;107046;1258;60206;-41
2023/07/11 05:09:45;;;;;;;5.10;4.50;;;;;;;18.03;67.47;99198.93;107053;1257;72639;-41
2023/07/11 05:12:25;;;;;;;6.10;4.40;;;;;;;18.09;66.83;99198.45;107027;1257;67613;-41
2023/07/11 05:14:53;;;;;;;4.30;3.90;;;;;;;18.14;66.83;99201.77;107033;1257;72704;-41
2023/07/11 05:17:20;;;;;;;6.40;4.00;;;;;;;18.20;66.56;99199.46;107028;1257;60419;-41
2023/07/11 05:19:48;;;;;;;6.00;4.50;;;;;;;18.27;66.48;99198.13;107061;1257;60496;-40
2023/07/11 05:22:16;;;;;;;5.70;4.10;;;;;;;18.36;66.13;99199.95;107050;1257;72630;-41
2023/07/11 05:24:43;;;;;;;5.60;4.40;;;;;;;18.46;65.54;99196.41;107157;1257;67564;-40
2023/07/11 05:27:11;;;;;;;5.20;4.00;;;;;;;18.51;65.48;99191.70;107025;1259;72714;-40
2023/07/11 05:29:38;;;;;;;5.80;4.10;;;;;;;18.59;65.38;99192.71;107053;1257;60363;-41
2023/07/11 05:32:06;;;;;;;4.40;4.00;;;;;;;18.69;64.75;99191.14;107077;1258;60127;-41
2023/07/11 05:34:34;;;;;;;4.80;4.00;;;;;;;18.76;64.36;99191.41;107023;1257;73889;-40
2023/07/11 05:37:04;;;;;;;6.40;4.60;;;;;;;18.81;64.32;99190.63;107061;1257;67573;-41
2023/07/11 05:39:31;;;;;;;7.60;4.10;;;;;;;18.83;64.25;99185.73;107115;1262;72651;-41
2023/07/11 05:41:59;;;;;;;4.40;3.90;;;;;;;18.79;64.29;99183.43;107025;1259;60439;-40
2023/07/11 05:44:27;;;;;;;4.30;3.50;;;;;;;18.82;64.30;99190.05;107061;1258;60443;-40
2023/07/11 05:46:56;;;;;;;4.60;3.50;;;;;;;18.91;63.57;99186.75;107071;1263;72647;-40
2023/07/11 05:49:23;;;;;;;6.10;4.20;;;;;;;18.97;63.19;99185.16;107058;1257;67689;-41
2023/07/11 05:51:51;;;;;;;6.50;4.40;;;;;;;19.00;63.08;99184.31;107011;1257;72793;-40
2023/07/11 05:54:19;;;;;;;4.50;4.00;;;;;;;19.00;62.66;99186.91;107081;1259;60072;-41
2023/07/11 05:56:46;;;;;;;4.70;3.70;;;;;;;19.01;62.87;99188.71;107096;1258;61245;-41
2023/07/11 05:59:14;;;;;;;6.30;4.00;;;;;;;19.00;62.67;99189.19;107064;1257;73917;-40
2023/07/11 06:01:42;;;;;;;6.10;4.10;;;;;;;19.01;62.99;99187.89;107042;1262;67665;-41
2023/07/11 06:04:12;;;;;;;4.20;3.80;;;;;;;19.06;62.82;99184.14;107071;1257;72717;-41
2023/07/11 06:06:43;;;;;;;5.60;3.50;;;;;;;19.16;62.40;99181.27;107239;1257;61729;-40
2023/07/11 06:09:13;;;;;;;4.10;3.70;;;;;;;19.29;61.91;99181.74;107069;1257;60419;-41
2023/07/11 06:11:41;;;;;;;;;;;;;;;19.38;61.45;99177.41;107073;1257;72604;-41
2023/07/11 06:14:09;;;;;;;3.70;3.10;;;;;;;19.39;61.39;99178.71;107198;1257;67628;-41
2023/07/11 06:16:38;;;;;;;5.60;3.20;;;;;;;19.42;60.36;99179.59;107076;1258;72687;-40
2023/07/11 06:19:05;;;;;;;3.50;3.20;;;;;;;19.51;60.03;99175.45;107114;1261;60427;-41
2023/07/11 06:21:33;;;;;;;5.40;3.60;;;;;;;19.61;59.59;99175.02;107045;1258;60327;-41
2023/07/11 06:24:00;;;;;;;4.40;3.50;;;;;;;19.66;60.00;99173.80;107037;1257;73905;-40
2023/07/11 06:26:28;;;;;;;3.90;3.30;;;;;;;19.72;59.92;99175.89;107046;1257;66752;-39
2023/07/11 06:28:56;;;;;;;5.90;3.50;;;;;;;19.75;60.24;99173.21;107121;1257;71446;-40
2023/07/11 06:31:24;;;;;;;4.20;3.70;;;;;;;19.81;59.39;99177.34;106985;1259;60525;-40
2023/07/11 06:33:52;;;;;;;4.70;3.30;;;;;;;19.82;59.04;99176.13;107053;1263;60339;-40
2023/07/11 06:36:20;;;;;;;4.20;3.20;;;;;;;19.80;58.32;99174.38;107063;1258;72801;-40
2023/07/11 06:38:47;;;;;;;3.50;3.10;;;;;;;19.78;58.44;99170.41;107031;1257;67920;-40
2023/07/11 06:41:15;;;;;;;3.80;3.10;;;;;;;19.83;59.02;99167.54;107034;1258;72718;-40
2023/07/11 06:43:42;;;;;;;4.10;3.40;;;;;;;19.96;58.77;99167.90;107036;1259;60400;-40
2023/07/11 06:46:11;;;;;;;5.90;2.90;;;;;;;20.09;58.37;99166.89;107082;1257;60396;-40
2023/07/11 06:48:39;;;;;;;3.80;3.30;;;;;;;20.17;57.11;99164.57;107025;1258;73867;-40
2023/07/11 06:51:07;;;;;;;3.60;3.20;;;;;;;20.21;57.17;99165.66;107075;1258;66619;-40
2023/07/11 06:53:35;;;;;;;3.50;3.00;;;;;;;20.28;56.91;99165.28;107025;1259;72760;-40
2023/07/11 06:56:03;;;;;;;3.10;2.80;;;;;;;20.35;56.85;99163.80;107005;1259;60092;-40
2023/07/11 06:58:31;;;;;;;3.70;3.20;;;;;;;20.41;56.60;99161.70;107084;1257;60060;-40
2023/07/11 07:01:05;;;;;;;6.00;2.80;;;;;;;20.45;56.07;99159.00;107049;1258;72587;-40
2023/07/11 07:03:45;;;;;;;5.30;3.20;;;;;;;20.53;56.58;99163.67;107042;1257;67654;-40
2023/07/11 07:06:13;;;;;;;3.80;2.90;;;;;;;20.60;55.73;99160.27;107050;1258;72706;-40
2023/07/11 07:08:41;;;;;;;4.70;2.80;;;;;;;20.71;55.24;99167.06;107034;1258;60496;-40
2023/07/11 07:11:09;;;;;;;3.90;2.60;;;;;;;20.80;54.47;99168.96;107052;1257;60316;-40
2023/07/11 07:13:37;;;;;;;4.60;2.80;;;;;;;20.87;53.97;99166.11;107036;1257;73903;-40
2023/07/11 07:16:15;;;;;;;3.00;2.60;;;;;;;20.93;53.61;99161.63;107055;1258;67660;-40
2023/07/11 07:18:44;;;;;;;3.60;2.70;;;;;;;21.01;53.48;99165.43;107046;1259;72953;-40
2023/07/11 07:21:11;;;;;;;3.60;2.70;;;;;;;21.09;53.22;99166.39;107042;1257;60588;-40
2023/07/11 07:23:39;;;;;;;5.30;2.50;;;;;;;21.08;52.07;99164.54;107027;1257;59617;-38
2023/07/11 07:26:07;;;;;;;6.70;3.10;;;;;;;20.94;51.84;99163.88;107022;1257;73872;-38
2023/07/11 07:28:35;;;;;;;3.50;2.60;;;;;;;20.86;52.63;99160.41;106972;1257;66779;-38
2023/07/11 07:31:05;;;;;;;3.10;2.60;;;;;;;20.89;52.84;99157.33;107066;1259;72683;-39
2023/07/11 07:33:34;;;;;;;4.20;2.90;;;;;;;20.97;52.84;99152.14;107073;1259;60467;-39
2023/07/11 07:36:03;;;;;;;2.70;2.50;;;;;;;21.06;52.31;99155.36;107043;1258;60493;-39
2023/07/11 07:38:31;;;;;;;3.40;2.60;;;;;;;21.11;51.85;99159.42;107026;1257;72595;-40
2023/07/11 07:41:00;;;;;;;4.30;2.80;;;;;;;21.14;51.73;99159.48;107024;1258;66282;-39
2023/07/11 07:43:28;;;;;;;2.70;2.50;;;;;;;21.21;51.75;99158.06;107093;1260;71831;-40
2023/07/11 07:45:57;;;;;;;3.70;2.70;;;;;;;21.33;51.36;99157.18;107164;1257;60403;-40
2023/07/11 07:48:25;;;;;;;3.80;2.80;;;;;;;21.40;50.09;99160.60;107053;1257;60458;-39
2023/07/11 07:51:03;;;;;;;3.30;2.50;;;;;;;21.39;50.36;99156.39;107014;1257;73242;-40
2023/07/11 07:53:32;;;;;;;5.60;2.90;;;;;;;21.41;51.07;99158.63;107061;1257;67557;-39
2023/07/11 07:56:15;;;;;;;4.80;2.80;;;;;;;21.51;51.30;99157.92;106993;1263;73184;-40
2023/07/11 07:58:42;;;;;;;3.00;2.50;;;;;;;21.62;50.95;99154.36;106996;1262;60506;-40
2023/07/11 08:01:12;;;;;;;2.80;2.50;;;;;;;21.65;49.34;99152.15;107034;1258;60362;-40
2023/07/11 08:03:40;;;;;;;3.00;2.50;;;;;;;21.65;49.35;99150.50;107102;1258;73892;-39
2023/07/11 08:06:09;;;;;;;3.00;2.70;;;;;;;21.68;49.76;99149.86;107117;1257;67912;-39
2023/07/11 08:08:39;;;;;;;6.30;2.40;;;;;;;21.79;49.39;99151.83;107071;1257;73180;-40
2023/07/11 08:11:07;;;;;;;2.50;2.30;;;;;;;21.88;48.91;99150.55;107121;1259;60512;-40
2023/07/11 08:13:36;;;;;;;3.50;2.70;;;;;;;21.96;49.39;99149.66;107137;1258;60434;-40
2023/07/11 08:16:24;;;;;;;3.30;2.60;;;;;;;22.10;49.52;99149.73;107037;1257;73919;-40
2023/07/11 08:18:55;;;;;;;5.50;2.50;;;;;;;22.24;49.52;99149.14;107179;1257;67538;-40
2023/07/11 08:21:23;;;;;;;4.00;2.60;;;;;;;22.43;49.01;99142.35;107044;1263;71795;-40
2023/07/11 08:23:51;;;;;;;3.30;2.70;;;;;;;22.64;49.08;99137.34;107040;1257;60280;-40
2023/07/11 08:26:20;;;;;;;3.50;2.60;;;;;;;22.82;48.12;99136.90;107061;1257;60301;-40
2023/07/11 08:28:48;;;;;;;2.90;2.50;;;;;;;23.02;47.71;99131.38;107086;1257;72616;-40
2023/07/11 08:31:16;;;;;;;4.00;1.90;;;;;;;23.20;45.91;99133.79;107075;1258;68082;-40
2023/07/11 08:33:43;;;;;;;2.40;2.20;;;;;;;23.33;45.59;99131.03;107062;1257;72723;-39
2023/07/11 08:36:11;;;;;;;2.40;2.10;;;;;;;23.43;45.59;99128.77;107030;1257;60170;-40
2023/07/11 08:38:39;;;;;;;3.10;2.50;;;;;;;23.56;45.15;99131.56;107031;1257;60400;-40
2023/07/11 08:41:38;;;;;;;2.70;1.90;;;;;;;23.69;44.31;99130.02;107068;1259;72691;-41
2023/07/11 08:44:11;;;;;;;3.70;2.10;;;;;;;23.80;42.66;99126.13;107015;1258;67673;-40
2023/07/11 08:46:44;;;;;;;3.80;2.20;;;;;;;23.83;43.38;99126.89;107068;1259;71398;-40
2023/07/11 08:49:16;;;;;;;2.10;1.90;;;;;;;23.88;43.27;99123.77;107036;1258;60400;-40
2023/07/11 08:51:49;;;;;;;3.90;2.00;;;;;;;23.94;43.15;99122.50;107062;1259;60049;-40
2023/07/11 08:54:35;;;;;;;5.00;2.40;;;;;;;23.97;43.79;99123.25;107094;1257;73899;-40
2023/07/11 08:57:03;;;;;;;2.20;2.00;;;;;;;23.94;43.54;99129.02;107082;1257;67596;-40
2023/07/11 08:59:53;;;;;;;4.40;2.40;;;;;;;23.77;43.40;99129.86;107074;1257;72660;-40
2023/07/11 09:02:26;;;;;;;3.20;2.10;;;;;;;23.70;44.07;99126.41;107078;1263;60392;-40
2023/07/11 09:04:54;;;;;;;2.10;1.90;;;;;;;23.80;43.69;99127.63;107069;1257;60296;-40
2023/07/11 09:07:31;;;;;;;5.40;2.40;;;;;;;23.94;43.16;99123.79;106915;1258;72662;-40
2023/07/11 09:09:59;;;;;;;2.60;2.20;;;;;;;24.12;43.33;99121.16;107030;1259;67963;-40
2023/07/11 09:12:29;;;;;;;2.40;2.00;;;;;;;24.29;43.03;99123.44;107055;1257;72707;-40
2023/07/11 09:15:06;;;;;;;2.40;2.10;;;;;;;24.32;41.62;99130.26;107059;1259;60355;-40
2023/07/11 09:18:00;;;;;;;3.80;2.70;;;;;;;24.17;40.80;99130.33;107103;1257;60515;-40
2023/07/11 09:20:50;;;;;;;2.60;2.10;;;;;;;23.96;41.53;99121.89;106877;1257;73892;-40
2023/07/11 09:23:28;;;;;;;3.40;2.00;;;;;;;23.82;41.58;99123.36;107044;1259;67924;-40
2023/07/11 09:26:08;;;;;;;4.00;2.00;;;;;;;23.66;41.67;99124.37;106928;1257;167124;-40
2023/07/11 09:30:31;;;;;;;2.90;2.30;;;;;;;23.52;42.62;99127.61;104236;1294;614928;-39
2023/07/11 09:33:22;;;;;;;4.50;2.30;;;;;;;23.41;42.65;99120.95;106723;1263;60165;-39
2023/07/11 09:35:50;;;;;;;3.80;1.80;;;;;;;23.26;43.75;99123.89;106744;1264;59230;-40
2023/07/11 09:38:53;;;;;;;2.30;2.00;;;;;;;23.18;43.20;99122.84;106799;1263;72239;-39
2023/07/11 09:41:23;;;;;;;2.30;2.10;;;;;;;23.18;44.12;99122.59;106863;1264;68332;-39
2023/07/11 09:43:55;;;;;;;2.60;2.10;;;;;;;23.25;43.89;99118.30;106784;1261;186060;-40
2023/07/11 09:46:24;;;;;;;4.10;1.90;;;;;;;23.41;43.02;99121.44;107045;1261;60342;-40
2023/07/11 09:48:54;;;;;;;2.70;2.30;;;;;;;23.54;43.01;99120.08;107032;1260;60537;-40
2023/07/11 09:51:41;;;;;;;2.50;2.00;;;;;;;23.69;42.69;99115.49;106928;1265;72613;-40
2023/07/11 09:54:17;;;;;;;2.80;2.10;;;;;;;23.86;42.53;99109.30;107011;1261;66780;-39
2023/07/11 09:56:45;;;;;;;2.30;2.10;;;;;;;23.98;41.88;99112.20;106937;1265;73235;-40
2023/07/11 09:59:12;;;;;;;3.50;2.10;;;;;;;24.03;40.93;99118.10;106916;1261;60378;-40
2023/07/11 10:01:39;;;;;;;3.00;1.80;;;;;;;24.02;40.91;99116.09;106858;1262;60249;-40
2023/07/11 10:04:08;;;;;;;6.10;2.30;;;;;;;23.94;40.42;99115.70;107190;1258;73495;-40
2023/07/11 10:06:42;;;;;;;3.20;2.10;;;;;;;23.89;41.25;99114.80;107244;1262;67999;-40
2023/07/11 10:09:23;;;;;;;2.30;2.10;;;;;;;23.97;41.20;99108.32;107212;1258;72991;-40
2023/07/11 10:11:53;;;;;;;2.30;2.10;;;;;;;24.13;41.66;99106.18;107137;1258;60276;-40
2023/07/11 10:14:20;;;;;;;;;;;;;;;24.35;41.88;99099.51;107280;1258;59501;-40
2023/07/11 10:16:47;;;;;;;2.20;2.00;;;;;;;24.53;40.96;99099.32;107223;1258;72870;-40
2023/07/11 10:19:15;;;;;;;2.60;2.00;;;;;;;24.63;40.06;99101.98;107257;1257;68930;-40
2023/07/11 10:21:49;;;;;;;2.30;1.90;;;;;;;24.66;39.18;99101.04;107176;1258;72943;-40
2023/07/11 10:24:21;;;;;;;3.40;2.00;;;;;;;24.69;38.73;99095.61;107234;1258;59608;-40
2023/07/11 10:26:51;;;;;;;2.70;1.90;;;;;;;24.79;39.02;99098.14;107200;1258;60361;-39
2023/07/11 10:29:19;;;;;;;2.60;1.80;;;;;;;24.90;38.75;99093.14;107250;1258;73402;-41
2023/07/11 10:32:04;;;;;;;2.40;2.20;;;;;;;25.07;38.91;99085.19;107175;1258;68110;-40
2023/07/11 10:34:48;;;;;;;4.20;1.80;;;;;;;25.32;37.99;99079.55;107113;1258;71528;-40
2023/07/11 10:37:23;;;;;;;3.40;2.30;;;;;;;25.63;37.94;99078.70;107106;1258;60233;-39
2023/07/11 10:39:51;;;;;;;2.20;1.90;;;;;;;25.88;37.19;99082.25;107265;1259;60179;-40
2023/07/11 10:42:39;;;;;;;2.90;2.10;;;;;;;26.06;37.39;99081.02;107274;1260;73728;-40
2023/07/11 10:45:18;;;;;;;2.20;2.00;;;;;;;26.13;37.73;99079.13;107228;1262;68488;-40
2023/07/11 10:48:23;;;;;;;3.00;2.10;;;;;;;26.22;37.85;99082.42;107221;1260;71452;-40
2023/07/11 10:51:01;;;;;;;2.60;2.10;;;;;;;26.34;36.95;99082.02;106995;1259;60629;-40
2023/07/11 10:53:29;;;;;;;2.40;1.70;;;;;;;26.49;35.97;99092.74;107126;1258;60306;-41
2023/07/11 10:56:05;;;;;;;;;;;;;;;26.49;34.94;99085.88;107175;1260;73724;-40
2023/07/11 10:58:33;;;;;;;2.10;1.80;;;;;;;26.24;35.98;99086.00;107180;1260;68130;-39
2023/07/11 11:01:09;;;;;;;3.70;2.00;;;;;;;26.03;36.92;99086.69;107004;1259;72927;-40
2023/07/11 11:03:47;;;;;;;2.60;2.40;;;;;;;25.88;37.53;99081.63;107178;1259;60282;-40
2023/07/11 11:06:19;;;;;;;2.20;1.90;;;;;;;25.78;37.37;99080.69;107217;1260;59637;-40
2023/07/11 11:09:11;;;;;;;2.30;2.00;;;;;;;25.73;37.36;99076.17;107278;1260;71510;-40
2023/07/11 11:12:04;;;;;;;2.10;1.80;;;;;;;25.81;38.07;99072.67;107180;1263;67801;-40
2023/07/11 11:14:42;;;;;;;1.90;1.80;;;;;;;26.07;37.27;99077.62;107227;1261;72756;-40
2023/07/11 11:17:15;;;;;;;2.20;2.00;;;;;;;26.36;37.15;99073.67;107098;1260;60446;-40
2023/07/11 11:19:54;;;;;;;1.80;1.70;;;;;;;26.72;36.90;99075.98;107453;1254;60641;-39
2023/07/11 11:22:22;;;;;;;2.20;1.70;;;;;;;27.16;35.48;99073.36;107471;1254;74043;-40
2023/07/11 11:24:52;;;;;;;2.70;1.80;;;;;;;27.53;34.70;99074.81;107490;1254;68509;-40
2023/07/11 11:27:23;;;;;;;2.00;1.80;;;;;;;27.79;34.14;99068.35;107458;1253;73109;-40
2023/07/11 11:30:12;;;;;;;2.00;1.80;;;;;;;28.05;33.79;99060.27;107513;1254;60327;-40
2023/07/11 11:32:52;;;;;;;2.20;2.00;;;;;;;28.38;33.78;99064.03;107517;1254;60085;-40
2023/07/11 11:35:40;;;;;;;1.90;1.70;;;;;;;28.53;32.23;99064.08;107543;1254;71343;-40
2023/07/11 11:38:22;;;;;;;4.20;2.00;;;;;;;28.46;32.26;99067.78;107406;1254;68626;-40
2023/07/11 11:40:51;;;;;;;1.90;1.80;;;;;;;28.39;32.58;99064.20;107462;1254;73045;-40
2023/07/11 11:43:19;;;;;;;4.80;2.10;;;;;;;28.34;32.34;99065.25;107338;1254;60213;-40